Time;durP1;ratioP1;P1;durP2;ratioP2;P2;SDS_P1;SDS_P2;PMS_P1;PMS_P2;Temp;Humidity;BMP_temperature;BMP_pressure;BME280_temperature;BME280_humidity;BME280_pressure;Samples;Min_cycle;Max_cycle;Signal;HPM_P1;HPM_P2
2023/10/19 00:01:37;;;;;;;4.70;3.30;;;;;;;9.88;82.17;98420.53;21038178;28;20277;-78
2023/10/19 00:11:40;;;;;;;4.03;2.67;;;;;;;9.79;82.99;98418.75;21034267;28;20483;-78
2023/10/19 00:21:50;;;;;;;4.17;2.27;;;;;;;10.26;81.15;98397.19;21024426;28;20504;-77
2023/10/19 00:31:56;;;;;;;4.20;2.47;;;;;;;10.36;80.95;98380.50;21024388;28;20200;-77
2023/10/19 00:41:58;;;;;;;3.30;2.40;;;;;;;10.19;81.33;98366.94;21030178;28;20313;-78
2023/10/19 00:52:10;;;;;;;3.03;2.30;;;;;;;10.31;81.51;98371.53;21044151;28;20560;-79
2023/10/19 01:02:19;;;;;;;3.03;2.30;;;;;;;10.06;84.67;98371.91;21036012;28;20218;-77
2023/10/19 01:12:32;;;;;;;3.20;2.50;;;;;;;10.09;86.54;98351.50;21040149;28;20231;-76
2023/10/19 01:22:35;;;;;;;3.60;2.30;;;;;;;10.04;86.00;98337.75;21053717;28;20225;-77
2023/10/19 01:32:38;;;;;;;2.88;2.60;;;;;;;10.00;87.19;98338.88;21022094;28;20310;-77
2023/10/19 01:42:40;;;;;;;3.80;2.87;;;;;;;10.19;87.96;98346.44;21037996;28;20696;-76
2023/10/19 01:52:44;;;;;;;4.33;3.70;;;;;;;10.23;89.08;98347.31;21052997;28;20247;-76
2023/10/19 02:02:47;;;;;;;4.75;3.50;;;;;;;10.65;85.11;98336.81;21035301;28;20536;-90
2023/10/19 02:12:55;;;;;;;5.05;4.20;;;;;;;10.58;87.74;98333.84;21051592;28;20194;-91
2023/10/19 02:22:57;;;;;;;5.60;3.80;;;;;;;10.42;87.67;98319.13;21032819;28;20261;-78
2023/10/19 02:33:00;;;;;;;5.70;3.67;;;;;;;10.82;87.50;98318.56;21077917;28;20186;-78
2023/10/19 02:43:03;;;;;;;3.77;3.40;;;;;;;10.79;86.53;98320.13;21050044;28;20218;-78
2023/10/19 02:53:07;;;;;;;5.70;3.20;;;;;;;10.88;86.42;98322.69;21050429;28;20224;-77
2023/10/19 03:03:10;;;;;;;3.07;2.77;;;;;;;11.29;83.45;98303.94;21058989;28;20377;-78
2023/10/19 03:13:15;;;;;;;3.97;2.30;;;;;;;11.21;83.78;98302.22;21018398;28;20198;-80
2023/10/19 03:23:17;;;;;;;2.75;2.03;;;;;;;11.36;82.90;98298.38;21001517;28;20225;-77
2023/10/19 03:33:20;;;;;;;2.50;1.83;;;;;;;11.40;83.61;98290.00;21007588;28;20195;-78
2023/10/19 03:43:22;;;;;;;3.80;1.73;;;;;;;11.29;84.42;98291.88;21028562;28;20485;-78
2023/10/19 03:53:25;;;;;;;3.40;2.42;;;;;;;11.34;83.32;98280.25;21052139;28;20225;-78
2023/10/19 04:03:30;;;;;;;3.20;2.03;;;;;;;11.40;83.05;98273.09;20999695;28;20509;-79
2023/10/19 04:13:33;;;;;;;2.90;1.60;;;;;;;11.70;80.52;98268.22;21019388;28;20199;-92
2023/10/19 04:23:36;;;;;;;4.47;1.20;;;;;;;11.78;80.63;98263.47;21048652;28;20505;-78
2023/10/19 04:33:42;;;;;;;1.00;0.90;;;;;;;11.66;81.59;98266.56;21055423;28;20251;-78
2023/10/19 04:43:49;;;;;;;2.15;0.95;;;;;;;11.93;80.03;98253.97;21075714;28;20603;-81
2023/10/19 04:53:53;;;;;;;1.92;1.10;;;;;;;11.89;79.75;98241.84;21068222;28;20222;-78
2023/10/19 05:03:54;;;;;;;2.22;1.20;;;;;;;11.81;80.26;98252.25;21076573;28;20584;-80
2023/10/19 05:13:57;;;;;;;1.35;1.13;;;;;;;11.95;80.08;98245.13;21084781;28;20289;-79
2023/10/19 05:24:00;;;;;;;4.47;2.05;;;;;;;11.72;79.13;98253.75;21075404;28;20218;-78
2023/10/19 05:34:04;;;;;;;2.00;1.02;;;;;;;11.54;81.36;98264.81;21039477;28;20191;-78
2023/10/19 05:44:06;;;;;;;2.37;1.10;;;;;;;11.52;81.02;98264.38;21059031;28;20219;-79
2023/10/19 05:54:09;;;;;;;1.98;1.30;;;;;;;11.68;79.58;98253.72;21055376;28;20223;-77
2023/10/19 06:04:12;;;;;;;2.63;0.90;;;;;;;12.12;77.47;98262.19;21055504;28;20218;-79
2023/10/19 06:14:15;;;;;;;2.70;1.60;;;;;;;11.97;78.13;98266.06;21058351;28;20553;-94
2023/10/19 06:24:18;;;;;;;6.45;1.27;;;;;;;11.77;79.33;98284.41;21042493;28;20218;-78
2023/10/19 06:34:22;;;;;;;4.03;1.45;;;;;;;12.03;79.23;98287.06;21047907;28;20307;-78
2023/10/19 06:44:23;;;;;;;3.00;1.45;;;;;;;11.81;80.17;98290.88;21035006;28;20230;-78
2023/10/19 06:54:27;;;;;;;2.65;1.33;;;;;;;12.02;77.79;98310.81;21050647;28;20225;-79
2023/10/19 07:04:30;;;;;;;2.58;2.08;;;;;;;12.08;78.51;98312.09;21068073;28;20222;-78
2023/10/19 07:14:35;;;;;;;4.88;1.67;;;;;;;12.12;77.90;98317.75;21055648;28;20198;-78
2023/10/19 07:24:38;;;;;;;3.77;1.50;;;;;;;12.24;77.98;98309.00;21044158;28;20219;-78
2023/10/19 07:34:41;;;;;;;2.50;1.80;;;;;;;12.16;79.77;98315.78;21093188;28;20492;-78
2023/10/19 07:44:42;;;;;;;4.80;1.67;;;;;;;12.44;79.04;98334.97;21047769;28;20317;-79
2023/10/19 07:54:46;;;;;;;3.55;1.50;;;;;;;11.78;81.25;98331.09;21074813;28;20609;-79
2023/10/19 08:04:48;;;;;;;3.22;1.58;;;;;;;11.97;81.38;98342.16;21086615;28;20219;-79
2023/10/19 08:14:51;;;;;;;5.90;1.67;;;;;;;11.95;80.27;98336.13;21095325;28;20282;-79
2023/10/19 08:24:54;;;;;;;3.85;1.27;;;;;;;11.95;80.88;98329.69;21073869;28;20224;-78
2023/10/19 08:35:05;;;;;;;1.87;1.23;;;;;;;12.45;79.91;98328.94;21080251;28;20212;-78
2023/10/19 08:45:12;;;;;;;2.17;1.23;;;;;;;12.87;78.30;98319.19;21101825;28;20222;-78
2023/10/19 08:55:15;;;;;;;3.33;1.10;;;;;;;12.93;77.01;98315.59;21092596;28;20813;-78
2023/10/19 09:05:22;;;;;;;3.92;1.55;;;;;;;13.28;76.41;98305.69;21043074;28;20233;-79
2023/10/19 09:15:26;;;;;;;4.50;1.50;;;;;;;13.13;78.30;98298.34;21103204;28;20251;-79
2023/10/19 09:25:28;;;;;;;4.50;2.38;;;;;;;13.52;74.21;98288.06;21089112;28;20519;-79
2023/10/19 09:35:31;;;;;;;2.60;1.25;;;;;;;13.29;77.30;98312.97;21057395;28;20194;-77
2023/10/19 09:45:34;;;;;;;3.28;0.75;;;;;;;13.37;76.64;98294.91;21055394;28;20241;-78
2023/10/19 09:55:39;;;;;;;2.42;0.90;;;;;;;14.09;73.80;98295.88;21090224;28;20510;-79
2023/10/19 10:05:47;;;;;;;1.50;0.60;;;;;;;14.05;74.07;98287.38;21102816;28;20229;-78
2023/10/19 10:15:51;;;;;;;2.08;1.02;;;;;;;14.41;73.17;98276.94;21074624;28;20207;-79
2023/10/19 10:25:53;;;;;;;4.93;0.90;;;;;;;14.75;72.64;98280.13;21063472;28;20271;-80
2023/10/19 10:35:57;;;;;;;3.20;0.90;;;;;;;14.39;72.88;98262.38;21072904;28;20248;-79
2023/10/19 10:46:08;;;;;;;3.38;0.73;;;;;;;14.94;68.32;98259.84;21089758;28;20310;-78
2023/10/19 10:56:12;;;;;;;3.40;1.02;;;;;;;14.71;69.68;98279.31;21034946;28;20291;-79
2023/10/19 11:06:13;;;;;;;4.82;0.70;;;;;;;15.32;66.22;98251.69;21093687;28;20234;-80
2023/10/19 11:16:23;;;;;;;5.22;0.70;;;;;;;15.95;63.30;98246.88;21073888;28;20206;-79
2023/10/19 11:26:25;;;;;;;3.15;0.70;;;;;;;15.59;63.61;98249.91;21048007;28;20222;-79
2023/10/19 11:36:29;;;;;;;3.85;0.82;;;;;;;16.03;63.01;98245.59;21058288;28;20233;-79
2023/10/19 11:46:31;;;;;;;5.93;1.00;;;;;;;15.35;64.65;98219.66;21044150;28;20227;-79
2023/10/19 11:56:34;;;;;;;4.93;0.77;;;;;;;16.34;61.85;98204.81;21056913;28;20217;-80
2023/10/19 12:06:36;;;;;;;6.35;1.05;;;;;;;16.27;61.82;98182.16;21044002;28;20510;-79
2023/10/19 12:16:40;;;;;;;4.60;0.70;;;;;;;16.19;60.17;98191.97;21055963;28;20246;-80
2023/10/19 12:26:44;;;;;;;2.00;0.75;;;;;;;15.92;62.01;98156.94;21051218;28;20214;-80
2023/10/19 12:36:51;;;;;;;4.15;0.90;;;;;;;16.14;62.47;98161.19;21055878;28;20230;-83
2023/10/19 12:46:53;;;;;;;2.42;0.52;;;;;;;15.61;62.58;98168.06;21083516;28;20714;-80
2023/10/19 12:56:57;;;;;;;8.43;1.05;;;;;;;16.15;62.62;98174.16;21102678;28;20682;-81
2023/10/19 13:06:59;;;;;;;4.45;0.90;;;;;;;16.16;62.44;98181.44;21087152;28;20213;-80
2023/10/19 13:17:03;;;;;;;5.95;0.98;;;;;;;15.16;66.30;98169.16;21051568;28;20199;-89
2023/10/19 13:27:05;;;;;;;4.80;0.80;;;;;;;15.09;66.42;98153.00;21055998;28;20671;-79
2023/10/19 13:37:08;;;;;;;3.97;0.93;;;;;;;16.29;63.31;98153.38;21061354;28;20223;-80
2023/10/19 13:47:11;;;;;;;3.85;0.75;;;;;;;15.98;66.41;98170.25;21081707;28;20534;-87
2023/10/19 13:57:15;;;;;;;3.95;1.00;;;;;;;15.90;66.88;98160.19;21060371;28;20320;-87
2023/10/19 14:07:16;;;;;;;5.45;0.57;;;;;;;15.55;70.17;98161.25;21081495;28;20222;-80
2023/10/19 14:17:20;;;;;;;6.57;1.77;;;;;;;14.99;74.83;98151.84;21048277;28;20216;-85
2023/10/19 14:27:22;;;;;;;5.80;1.20;;;;;;;14.95;76.87;98136.84;21053400;28;20237;-78
2023/10/19 14:37:25;;;;;;;8.85;1.80;;;;;;;14.75;76.04;98124.41;21041926;28;20302;-78
2023/10/19 14:47:27;;;;;;;3.33;1.50;;;;;;;15.16;74.75;98101.19;21046155;28;20301;-90
2023/10/19 14:57:31;;;;;;;5.15;1.92;;;;;;;14.80;77.43;98092.84;21048107;28;20271;-79
2023/10/19 15:07:33;;;;;;;6.32;1.20;;;;;;;15.32;76.23;98067.47;21063567;28;20222;-79
2023/10/19 15:17:38;;;;;;;5.53;1.35;;;;;;;15.44;77.17;98055.66;21052236;28;20205;-78
2023/10/19 15:27:40;;;;;;;5.88;1.70;;;;;;;15.32;77.94;98041.97;21048136;28;20652;-80
2023/10/19 15:37:47;;;;;;;5.50;1.83;;;;;;;15.15;78.46;98040.06;21047101;28;20397;-84
2023/10/19 15:47:53;;;;;;;7.53;1.65;;;;;;;14.95;78.63;98034.91;21037568;28;20322;-78
2023/10/19 15:57:57;;;;;;;5.15;1.92;;;;;;;14.19;81.39;98032.03;21027052;28;20197;-84
2023/10/19 16:07:59;;;;;;;8.68;1.55;;;;;;;14.75;77.86;97986.50;21064558;28;20305;-78
2023/10/19 16:18:02;;;;;;;6.80;1.50;;;;;;;14.81;77.90;97971.91;21059078;28;20209;-80
2023/10/19 16:28:04;;;;;;;10.23;1.98;;;;;;;14.65;78.25;97980.91;21079312;28;20232;-81
2023/10/19 16:38:12;;;;;;;5.03;1.52;;;;;;;14.61;79.01;97980.13;21069815;28;20214;-88
2023/10/19 16:48:13;;;;;;;6.95;2.00;;;;;;;14.65;79.21;97975.25;21061036;28;20244;-78
2023/10/19 16:58:16;;;;;;;7.78;2.55;;;;;;;14.71;79.03;97982.88;21069605;28;20203;-79
2023/10/19 17:08:18;;;;;;;6.47;2.65;;;;;;;14.63;79.25;97977.69;21058173;28;20521;-81
2023/10/19 17:18:22;;;;;;;8.32;3.10;;;;;;;14.65;78.48;97987.38;21066235;28;20491;-79
2023/10/19 17:28:24;;;;;;;7.65;2.92;;;;;;;14.64;78.19;97973.63;21058113;28;20476;-79
2023/10/19 17:38:28;;;;;;;11.32;3.03;;;;;;;14.61;78.65;97963.13;21074789;28;20221;-85
2023/10/19 17:48:30;;;;;;;9.02;3.05;;;;;;;14.21;80.13;97976.69;21068723;28;20229;-93
2023/10/19 17:58:34;;;;;;;8.23;2.67;;;;;;;13.79;80.60;97963.47;21054805;28;20294;-80
2023/10/19 18:08:36;;;;;;;6.13;3.15;;;;;;;14.19;78.85;97956.47;21058797;28;20272;-78
2023/10/19 18:18:40;;;;;;;8.88;3.72;;;;;;;13.97;79.16;97950.09;21055652;28;20204;-79
2023/10/19 18:28:43;;;;;;;7.60;3.60;;;;;;;13.76;79.42;97949.38;21047429;28;20260;-81
2023/10/19 18:38:48;;;;;;;7.35;3.60;;;;;;;13.77;79.24;97948.97;21052970;28;20227;-79
2023/10/19 18:48:49;;;;;;;9.48;4.03;;;;;;;13.66;79.07;97932.00;21062564;28;20213;-78
2023/10/19 18:58:52;;;;;;;10.25;4.57;;;;;;;13.45;80.11;97939.75;21041650;28;20207;-79
2023/10/19 19:08:56;;;;;;;6.50;4.32;;;;;;;13.25;79.89;97942.94;21050723;28;20221;-78
2023/10/19 19:18:59;;;;;;;10.88;4.40;;;;;;;13.44;79.17;97924.81;21052511;28;20216;-78
2023/10/19 19:29:01;;;;;;;8.45;5.07;;;;;;;13.32;79.30;97894.13;21055559;28;20218;-79
2023/10/19 19:39:07;;;;;;;9.77;4.95;;;;;;;13.11;79.54;97916.75;21035427;28;20284;-79
2023/10/19 19:49:09;;;;;;;9.55;5.80;;;;;;;13.02;79.84;97913.53;21064098;28;20245;-78
2023/10/19 19:59:12;;;;;;;8.70;5.40;;;;;;;12.65;79.69;97894.97;21063002;28;20228;-88
2023/10/19 20:09:17;;;;;;;8.70;5.47;;;;;;;12.68;80.37;97901.84;21033934;28;20638;-78
2023/10/19 20:19:20;;;;;;;7.70;6.30;;;;;;;13.33;78.11;97898.56;21035998;28;20202;-78
2023/10/19 20:29:22;;;;;;;7.38;4.93;;;;;;;13.45;77.43;97886.88;21045110;28;20223;-78
2023/10/19 20:39:25;;;;;;;4.90;4.40;;;;;;;13.02;79.29;97893.75;21040109;28;20226;-78
2023/10/19 20:49:27;;;;;;;5.90;4.97;;;;;;;13.13;77.73;97874.78;21045455;28;20222;-78
2023/10/19 20:59:31;;;;;;;5.80;5.00;;;;;;;13.04;78.75;97854.66;21038029;28;20279;-77
2023/10/19 21:09:33;;;;;;;9.43;5.27;;;;;;;13.37;76.99;97816.69;21043991;28;20314;-92
2023/10/19 21:19:36;;;;;;;6.53;5.53;;;;;;;12.87;77.32;97780.88;21059103;28;20247;-78
2023/10/19 21:29:41;;;;;;;9.68;6.80;;;;;;;12.61;79.68;97784.13;21052053;28;20669;-78
2023/10/19 21:39:44;;;;;;;9.57;7.28;;;;;;;12.66;78.95;97782.94;21058379;28;20218;-78
2023/10/19 21:49:49;;;;;;;10.63;7.63;;;;;;;12.53;78.93;97769.25;21045541;28;20226;-87
2023/10/19 21:59:52;;;;;;;9.97;6.80;;;;;;;11.94;81.56;97764.38;21051741;28;20194;-78
2023/10/19 22:09:53;;;;;;;9.47;6.33;;;;;;;12.15;80.55;97765.19;21043661;28;20623;-78
2023/10/19 22:19:56;;;;;;;7.32;6.40;;;;;;;12.09;81.22;97754.72;21034238;28;20219;-79
2023/10/19 22:30:00;;;;;;;10.53;6.27;;;;;;;12.08;80.38;97751.09;21021339;28;20315;-77
2023/10/19 22:40:06;;;;;;;8.05;6.10;;;;;;;11.86;80.94;97729.72;21024254;28;20241;-84
2023/10/19 22:50:10;;;;;;;9.93;6.63;;;;;;;12.06;80.29;97694.31;21044095;28;20225;-77
2023/10/19 23:00:15;;;;;;;8.18;7.05;;;;;;;12.27;79.68;97716.84;21027490;28;20199;-77
2023/10/19 23:21:17;;;;;;;8.77;6.45;;;;;;;12.60;78.99;97678.16;21030521;28;20318;-77
2023/10/19 23:31:23;;;;;;;8.90;6.60;;;;;;;12.30;80.58;97681.41;21047560;28;20210;-77
2023/10/19 23:41:26;;;;;;;10.95;7.45;;;;;;;12.58;78.60;97687.03;21026104;28;20232;-78
2023/10/19 23:51:30;;;;;;;9.27;7.53;;;;;;;12.58;79.49;97677.75;21052236;28;20225;-78
